Time;durP1;ratioP1;P1;durP2;ratioP2;P2;SDS_P1;SDS_P2;PMS_P1;PMS_P2;Temp;Humidity;BMP_temperature;BMP_pressure;BME280_temperature;BME280_humidity;BME280_pressure;Samples;Min_cycle;Max_cycle;Signal;HPM_P1;HPM_P2
2022/12/08 00:02:07;;;;;;;2.30;1.00;;;;;;;5.11;64.58;100147.13;4769411;29;121122;-85
2022/12/08 00:10:22;;;;;;;2.60;0.93;;;;;;;5.11;64.15;100161.47;4768338;29;119430;-85
2022/12/08 00:13:05;;;;;;;3.90;1.02;;;;;;;4.76;64.21;100108.72;4772222;29;121979;-86
2022/12/08 00:15:38;;;;;;;2.80;0.73;;;;;;;5.15;64.32;100158.66;4767759;29;121311;-86
2022/12/08 00:18:11;;;;;;;2.72;0.77;;;;;;;5.01;64.21;100138.03;4749617;29;121368;-85
2022/12/08 00:20:41;;;;;;;3.67;0.93;;;;;;;4.92;64.14;100122.31;4739180;29;118935;-85
2022/12/08 00:23:16;;;;;;;5.10;0.90;;;;;;;4.91;63.80;100114.56;4742764;29;120756;-85
2022/12/08 00:25:45;;;;;;;2.85;0.80;;;;;;;5.36;64.00;100173.69;4783689;29;119144;-85
2022/12/08 00:28:12;;;;;;;3.08;0.88;;;;;;;4.99;64.19;100112.47;4768177;29;119384;-85
2022/12/08 00:30:42;;;;;;;2.55;0.93;;;;;;;5.41;64.57;100168.50;4736060;29;121783;-86
2022/12/08 00:33:10;;;;;;;3.85;1.10;;;;;;;5.06;63.60;100104.13;4752636;29;120341;-86
2022/12/08 00:35:37;;;;;;;2.53;0.93;;;;;;;5.41;63.77;100151.41;4761273;29;119448;-86
2022/12/08 00:38:04;;;;;;;4.50;1.38;;;;;;;5.26;63.79;100117.63;4736629;29;121981;-85
2022/12/08 00:40:44;;;;;;;4.78;1.65;;;;;;;5.54;64.02;100153.00;4745793;29;119059;-85
2022/12/08 00:43:11;;;;;;;2.28;1.27;;;;;;;5.17;63.76;100099.19;4770036;29;120368;-85
2022/12/08 00:45:43;;;;;;;4.63;1.20;;;;;;;5.40;63.55;100131.59;4766597;29;122196;-85
2022/12/08 00:48:12;;;;;;;2.83;1.17;;;;;;;5.48;63.67;100140.38;4752638;29;119274;-85
2022/12/08 00:50:48;;;;;;;4.05;1.35;;;;;;;5.26;63.58;100102.06;4747153;29;121000;-86
2022/12/08 00:53:19;;;;;;;1.15;1.00;;;;;;;5.39;63.69;100115.72;4749383;29;121793;-85
2022/12/08 00:55:46;;;;;;;4.60;1.23;;;;;;;5.11;63.62;100082.63;4726199;29;119176;-85
2022/12/08 00:58:20;;;;;;;2.17;1.10;;;;;;;5.33;63.85;100110.03;4769627;29;120681;-85
2022/12/08 01:00:47;;;;;;;3.05;1.40;;;;;;;5.43;63.69;100130.75;4752160;29;119286;-85
2022/12/08 01:03:30;;;;;;;3.70;1.20;;;;;;;5.50;64.05;100146.91;4768034;29;121961;-85
2022/12/08 01:06:17;;;;;;;3.17;1.20;;;;;;;5.14;63.78;100089.16;4757470;29;119863;-85
2022/12/08 01:08:54;;;;;;;4.45;1.60;;;;;;;5.16;63.82;100086.78;4752017;29;119430;-85
2022/12/08 01:11:24;;;;;;;3.00;1.52;;;;;;;5.55;63.76;100151.06;4748572;29;120396;-85
2022/12/08 01:13:54;;;;;;;4.57;2.10;;;;;;;5.21;63.98;100097.16;4747182;29;122503;-84
2022/12/08 01:16:28;;;;;;;6.45;2.90;;;;;;;5.27;63.74;100106.31;4751562;29;119070;-85
2022/12/08 01:18:56;;;;;;;7.65;3.33;;;;;;;5.27;64.25;100102.84;4755774;29;120436;-85
2022/12/08 01:21:24;;;;;;;8.85;4.45;;;;;;;5.52;63.67;100133.63;4755322;29;121501;-85
2022/12/08 01:23:51;;;;;;;10.65;4.95;;;;;;;5.42;63.48;100123.78;4739906;29;120175;-84
2022/12/08 01:26:22;;;;;;;7.30;5.13;;;;;;;5.50;63.57;100144.19;4754854;29;121737;-85
2022/12/08 01:28:59;;;;;;;7.10;5.45;;;;;;;5.30;64.04;100099.25;4768890;29;119328;-85
2022/12/08 01:31:28;;;;;;;9.55;5.55;;;;;;;5.14;63.85;100073.63;4760048;29;121923;-85
2022/12/08 01:33:58;;;;;;;6.57;5.13;;;;;;;5.14;63.56;100059.25;4769991;29;121363;-85
2022/12/08 01:36:30;;;;;;;8.95;5.40;;;;;;;5.13;63.15;100065.88;4760692;29;119384;-85
2022/12/08 01:39:00;;;;;;;8.75;5.47;;;;;;;4.89;63.17;100044.34;4785637;29;119341;-85
2022/12/08 01:41:43;;;;;;;9.50;6.10;;;;;;;4.94;63.86;100046.53;4756377;29;120744;-86
2022/12/08 01:44:17;;;;;;;9.17;4.90;;;;;;;5.32;64.13;100105.81;4761152;29;120473;-85
2022/12/08 01:46:50;;;;;;;6.68;4.85;;;;;;;5.10;63.64;100075.66;4754691;29;122016;-86
2022/12/08 01:49:20;;;;;;;5.90;4.25;;;;;;;5.20;63.58;100101.03;4759340;29;121505;-86
2022/12/08 01:52:13;;;;;;;5.35;3.70;;;;;;;5.12;63.94;100105.13;4763930;29;120840;-85
2022/12/08 01:54:59;;;;;;;5.32;3.20;;;;;;;4.72;64.00;100078.16;4757771;29;122582;-85
2022/12/08 01:57:43;;;;;;;6.68;3.45;;;;;;;5.01;64.20;100110.84;4741758;29;120681;-85
2022/12/08 02:00:18;;;;;;;4.75;2.97;;;;;;;4.74;64.36;100067.63;4767078;29;119140;-85
2022/12/08 02:03:11;;;;;;;6.32;3.30;;;;;;;4.67;64.41;100048.78;4750496;29;122317;-85
2022/12/08 02:05:43;;;;;;;5.80;2.97;;;;;;;4.73;64.68;100068.84;4770355;29;119074;-85
2022/12/08 02:08:15;;;;;;;4.28;2.78;;;;;;;4.73;64.63;100057.97;4753528;29;122620;-85
2022/12/08 02:10:51;;;;;;;5.03;2.35;;;;;;;5.03;64.95;100092.16;4769912;29;119080;-85
2022/12/08 02:13:26;;;;;;;7.22;2.42;;;;;;;4.71;64.48;100025.00;4740401;29;120642;-85
2022/12/08 02:16:34;;;;;;;4.78;2.47;;;;;;;4.80;64.47;100041.47;4769266;29;119653;-85
2022/12/08 02:19:30;;;;;;;4.20;2.40;;;;;;;5.26;64.88;100096.63;4769589;29;119096;-85
2022/12/08 02:22:38;;;;;;;4.88;2.30;;;;;;;4.99;64.59;100056.16;4755538;29;119241;-85
2022/12/08 02:25:40;;;;;;;8.43;2.50;;;;;;;4.94;64.75;100051.22;4768458;29;121050;-84
2022/12/08 02:28:45;;;;;;;5.15;2.20;;;;;;;5.34;64.73;100100.69;4791396;29;119661;-85
2022/12/08 02:31:33;;;;;;;;;;;;;;;5.34;64.18;100095.25;4758984;29;120918;-85
2022/12/08 02:34:30;;;;;;;5.22;2.22;;;;;;;5.34;64.67;100100.69;4767837;29;119495;-84
2022/12/08 02:37:07;;;;;;;4.22;2.05;;;;;;;5.38;64.54;100095.16;4749537;29;120842;-84
2022/12/08 02:39:56;;;;;;;5.05;1.90;;;;;;;5.39;64.51;100100.16;4782486;29;119250;-84
2022/12/08 02:42:34;;;;;;;4.05;1.83;;;;;;;5.39;64.38;100097.44;4784536;29;118323;-85
2022/12/08 02:45:29;;;;;;;4.28;2.00;;;;;;;5.40;64.32;100109.84;4768377;29;121219;-85
2022/12/08 02:48:08;;;;;;;4.25;1.80;;;;;;;5.01;64.30;100029.31;4754496;29;121664;-83
2022/12/08 02:50:39;;;;;;;5.10;1.52;;;;;;;5.09;64.66;100029.88;4763750;29;119385;-85
2022/12/08 02:53:09;;;;;;;3.30;1.85;;;;;;;5.20;64.48;100052.91;4745631;29;120982;-85
2022/12/08 02:55:56;;;;;;;3.38;1.77;;;;;;;5.41;63.96;100080.69;4761135;29;120810;-84
2022/12/08 02:58:58;;;;;;;3.25;1.50;;;;;;;5.42;64.13;100085.72;4768408;29;121351;-85
2022/12/08 03:01:38;;;;;;;3.88;1.77;;;;;;;5.42;63.65;100079.50;4738622;29;120881;-85
2022/12/08 03:04:33;;;;;;;4.28;1.88;;;;;;;4.91;63.92;100014.78;4749343;29;119472;-84
2022/12/08 03:07:37;;;;;;;4.35;1.75;;;;;;;5.34;64.16;100076.22;4752250;29;120311;-85
2022/12/08 03:10:15;;;;;;;3.60;1.98;;;;;;;5.20;64.16;100060.25;4753380;29;122329;-85
2022/12/08 03:12:48;;;;;;;4.03;1.75;;;;;;;5.42;64.09;100085.72;4756420;29;119448;-85
2022/12/08 03:15:19;;;;;;;2.40;1.60;;;;;;;5.07;64.15;100032.28;4765426;29;120872;-84
2022/12/08 03:17:50;;;;;;;3.42;1.70;;;;;;;5.47;64.06;100081.72;4767416;29;122177;-85
2022/12/08 03:20:28;;;;;;;5.68;2.10;;;;;;;5.51;64.00;100088.59;4765332;29;119288;-85
2022/12/08 03:23:10;;;;;;;5.13;1.77;;;;;;;5.01;63.11;100012.25;4747641;29;119256;-84
2022/12/08 03:25:47;;;;;;;3.05;1.52;;;;;;;5.14;63.67;100032.84;4752943;29;119250;-85
2022/12/08 03:28:20;;;;;;;4.07;1.70;;;;;;;5.37;63.80;100053.59;4752880;29;120485;-85
2022/12/08 03:30:56;;;;;;;3.92;1.67;;;;;;;5.53;63.90;100075.31;4751250;29;123045;-85
2022/12/08 03:33:35;;;;;;;14.43;4.75;;;;;;;5.11;63.57;100011.19;4756953;29;120079;-84
2022/12/08 03:36:05;;;;;;;8.07;2.22;;;;;;;5.19;63.80;100016.00;4756923;29;121100;-85
2022/12/08 03:38:52;;;;;;;3.65;1.73;;;;;;;5.14;63.54;100004.88;4754231;29;121700;-85
2022/12/08 03:41:30;;;;;;;3.75;1.70;;;;;;;5.18;63.57;100011.75;4782920;29;119435;-84
2022/12/08 03:44:03;;;;;;;4.05;1.63;;;;;;;5.26;63.40;100020.50;4770453;29;121066;-84
2022/12/08 03:46:33;;;;;;;3.00;1.60;;;;;;;5.50;63.71;100056.38;4767163;29;119353;-84
2022/12/08 03:48:59;;;;;;;7.00;2.08;;;;;;;5.19;63.51;100007.09;4770006;29;119516;-84
2022/12/08 03:51:32;;;;;;;4.63;1.75;;;;;;;5.05;63.94;99981.06;4756229;29;119314;-85
2022/12/08 03:54:03;;;;;;;6.15;1.85;;;;;;;5.34;63.53;100024.56;4782828;29;119335;-85
2022/12/08 03:56:42;;;;;;;2.47;1.70;;;;;;;5.09;63.66;99989.09;4767348;29;120950;-85
2022/12/08 03:59:17;;;;;;;3.88;1.90;;;;;;;5.14;63.41;100002.16;4737772;29;121538;-85
2022/12/08 04:01:44;;;;;;;3.97;1.80;;;;;;;5.52;64.04;100059.44;4751520;29;119401;-85
2022/12/08 04:04:14;;;;;;;4.88;1.98;;;;;;;5.43;63.55;100035.56;4755396;29;120307;-85
2022/12/08 04:06:49;;;;;;;2.95;1.77;;;;;;;5.11;63.67;99992.91;4738094;29;119397;-85
2022/12/08 04:09:19;;;;;;;4.88;1.48;;;;;;;5.59;63.64;100048.34;4751396;29;123719;-85
2022/12/08 04:11:50;;;;;;;3.75;2.13;;;;;;;5.12;64.15;99991.72;4768669;29;119166;-85
2022/12/08 04:14:22;;;;;;;5.30;2.13;;;;;;;5.64;63.45;100057.94;4753670;29;119179;-85
2022/12/08 04:16:54;;;;;;;4.75;2.00;;;;;;;5.19;63.81;99998.91;4734327;29;119750;-85
2022/12/08 04:19:24;;;;;;;4.50;2.10;;;;;;;5.64;63.55;100069.56;4767986;29;122546;-85
2022/12/08 04:21:52;;;;;;;4.15;2.08;;;;;;;5.18;63.48;100003.59;4752525;29;119654;-85
2022/12/08 04:24:24;;;;;;;5.00;2.28;;;;;;;5.64;63.51;100075.00;4752713;29;122520;-85
2022/12/08 04:26:51;;;;;;;4.07;2.67;;;;;;;5.54;63.57;100054.31;4737370;29;123645;-85
2022/12/08 04:29:20;;;;;;;5.20;2.58;;;;;;;5.65;63.10;100070.34;4765065;29;120022;-84
2022/12/08 04:31:49;;;;;;;3.17;2.80;;;;;;;5.38;63.57;100027.94;4766495;29;122405;-85
2022/12/08 04:34:19;;;;;;;5.68;2.85;;;;;;;5.65;63.78;100057.50;4737309;29;119188;-85
2022/12/08 04:36:51;;;;;;;5.10;3.13;;;;;;;5.67;63.60;100068.72;4752600;29;119383;-85
2022/12/08 04:39:21;;;;;;;4.15;3.40;;;;;;;5.61;63.33;100053.34;4752289;29;121604;-84
2022/12/08 04:41:59;;;;;;;4.60;3.17;;;;;;;5.34;63.17;100013.66;4754575;29;119415;-85
2022/12/08 04:44:35;;;;;;;6.22;3.00;;;;;;;5.04;63.02;99973.31;4778219;29;119100;-85
2022/12/08 04:47:09;;;;;;;7.43;3.55;;;;;;;5.15;63.27;99993.59;4738869;29;121782;-85
2022/12/08 04:49:45;;;;;;;5.53;3.47;;;;;;;5.03;63.83;99974.53;4776615;29;119384;-85
2022/12/08 04:52:16;;;;;;;6.05;3.78;;;;;;;5.09;63.92;99965.41;4768959;29;122446;-85
2022/12/08 04:54:48;;;;;;;5.75;4.03;;;;;;;5.12;63.74;99969.22;4743441;29;119905;-85
2022/12/08 04:57:20;;;;;;;4.57;3.22;;;;;;;5.14;64.05;99959.44;4753716;29;120755;-85
2022/12/08 04:59:50;;;;;;;7.40;3.50;;;;;;;5.58;63.97;100027.00;4751435;29;120987;-85
2022/12/08 05:02:20;;;;;;;5.63;3.20;;;;;;;5.15;63.43;99980.00;4753134;29;119165;-85
2022/12/08 05:04:57;;;;;;;;;;;;;;;;;;;;;
2022/12/08 05:07:26;;;;;;;4.78;2.92;;;;;;;5.58;63.88;100046.81;4751543;29;122722;-85
2022/12/08 05:10:03;;;;;;;;;;;;;;;;;;;;;
2022/12/08 05:12:33;;;;;;;6.75;4.78;;;;;;;5.34;64.09;100002.78;4771451;29;121139;-85
2022/12/08 05:15:00;;;;;;;4.57;3.10;;;;;;;5.57;63.96;100033.66;4752109;29;119146;-85
2022/12/08 05:17:27;;;;;;;3.80;2.95;;;;;;;5.51;63.42;100033.41;4737805;29;122023;-86
2022/12/08 05:19:56;;;;;;;3.50;3.08;;;;;;;5.40;63.34;100027.50;4737599;29;121146;-85
2022/12/08 05:22:23;;;;;;;5.82;2.97;;;;;;;5.04;63.43;99993.13;4736790;29;118480;-85
2022/12/08 05:24:59;;;;;;;4.55;2.70;;;;;;;5.02;63.62;100002.91;4752702;29;120477;-84
2022/12/08 05:27:26;;;;;;;4.72;2.97;;;;;;;5.14;63.63;100027.41;4766075;29;122317;-85
2022/12/08 05:30:01;;;;;;;4.47;2.70;;;;;;;4.87;63.77;99989.66;4737782;29;122243;-85
2022/12/08 05:32:31;;;;;;;4.32;3.15;;;;;;;4.82;63.91;99981.28;4762706;29;122115;-85
2022/12/08 05:35:00;;;;;;;6.57;3.67;;;;;;;4.83;64.19;99980.84;4754374;29;121456;-84
2022/12/08 05:37:36;;;;;;;5.90;3.58;;;;;;;4.97;64.36;99993.31;4740016;29;121112;-85
2022/12/08 05:40:04;;;;;;;6.55;4.13;;;;;;;4.73;64.24;99965.59;4764329;29;121244;-84
2022/12/08 05:42:33;;;;;;;7.13;4.28;;;;;;;4.96;64.41;99999.16;4753362;29;119359;-84
2022/12/08 05:45:00;;;;;;;7.93;3.97;;;;;;;4.88;64.21;100002.06;4766155;29;120159;-85
2022/12/08 05:47:30;;;;;;;9.25;5.20;;;;;;;4.80;64.17;99991.81;4751189;29;122603;-85
2022/12/08 05:50:01;;;;;;;7.40;4.63;;;;;;;5.06;64.41;100031.50;4770392;29;119099;-85
2022/12/08 05:52:30;;;;;;;8.20;4.88;;;;;;;4.83;64.43;100012.69;4759098;29;121181;-84
2022/12/08 05:55:02;;;;;;;4.47;3.20;;;;;;;4.65;64.55;99977.81;4739898;29;120543;-84
2022/12/08 05:57:28;;;;;;;5.30;4.07;;;;;;;5.06;64.84;100030.75;4753015;29;119545;-83
2022/12/08 05:59:58;;;;;;;7.88;3.88;;;;;;;5.10;64.70;100031.41;4761886;29;119560;-83
2022/12/08 06:02:29;;;;;;;8.63;4.07;;;;;;;4.96;64.64;100018.94;4763617;29;119349;-82
2022/12/08 06:05:00;;;;;;;5.72;3.67;;;;;;;5.07;65.35;100021.41;4750284;29;119514;-84
2022/12/08 06:07:27;;;;;;;7.18;3.70;;;;;;;4.87;64.90;99991.63;4750235;29;120229;-84
2022/12/08 06:09:58;;;;;;;6.45;3.90;;;;;;;5.19;65.15;100035.03;4766939;29;119344;-84
2022/12/08 06:12:35;;;;;;;7.05;3.42;;;;;;;4.80;65.00;99970.84;4765845;29;121065;-83
2022/12/08 06:15:18;;;;;;;7.70;3.73;;;;;;;5.25;65.23;100029.84;4757251;29;121749;-85
2022/12/08 06:17:50;;;;;;;6.95;3.55;;;;;;;5.03;65.42;99988.13;4759124;29;119209;-85
2022/12/08 06:20:34;;;;;;;6.63;3.38;;;;;;;5.30;64.85;100031.28;4765861;29;119378;-85
2022/12/08 06:23:03;;;;;;;4.93;3.45;;;;;;;4.85;65.32;99958.69;4739498;29;119384;-85
2022/12/08 06:25:39;;;;;;;6.05;3.33;;;;;;;5.38;65.21;100038.81;4755732;29;120900;-85
2022/12/08 06:28:08;;;;;;;4.45;2.85;;;;;;;5.34;65.44;100024.56;4739431;29;123054;-85
2022/12/08 06:30:55;;;;;;;;;;;;;;;;;;;;;
2022/12/08 06:33:43;;;;;;;4.43;3.10;;;;;;;5.47;64.89;100044.41;4757365;29;119358;-86
2022/12/08 06:36:13;;;;;;;7.38;3.28;;;;;;;5.10;64.98;99988.69;4776220;29;121766;-84
2022/12/08 06:38:43;;;;;;;8.10;3.38;;;;;;;5.30;64.48;100015.72;4765761;29;119166;-85
2022/12/08 06:41:25;;;;;;;6.63;3.60;;;;;;;5.14;64.77;99994.00;4785314;29;121123;-85
2022/12/08 06:43:56;;;;;;;6.80;3.50;;;;;;;5.15;64.91;99992.81;4764268;29;119758;-85
2022/12/08 06:46:31;;;;;;;6.25;3.58;;;;;;;5.46;65.12;100031.25;4740166;29;120992;-85
2022/12/08 06:48:59;;;;;;;5.65;3.20;;;;;;;5.60;64.71;100060.75;4754083;29;121831;-85
2022/12/08 06:51:28;;;;;;;4.82;3.17;;;;;;;5.32;64.86;100015.28;4767115;29;119857;-85
2022/12/08 06:53:58;;;;;;;6.22;3.10;;;;;;;5.35;64.70;100026.06;4775544;29;121894;-85
2022/12/08 06:56:30;;;;;;;4.40;2.83;;;;;;;5.21;64.53;100010.16;4753942;29;122641;-85
2022/12/08 06:58:57;;;;;;;5.68;3.08;;;;;;;5.54;64.59;100071.41;4738592;29;119375;-85
2022/12/08 07:01:27;;;;;;;4.00;2.50;;;;;;;5.40;64.53;100050.00;4753662;29;121122;-85
2022/12/08 07:04:03;;;;;;;4.53;2.60;;;;;;;5.33;64.30;100031.19;4742716;29;121329;-84
2022/12/08 07:06:38;;;;;;;5.95;2.97;;;;;;;5.66;64.31;100083.50;4753526;29;121272;-85
2022/12/08 07:09:07;;;;;;;4.40;2.60;;;;;;;5.27;64.02;100029.41;4782533;29;121720;-85
2022/12/08 07:11:40;;;;;;;9.20;3.17;;;;;;;5.52;64.73;100067.59;4753925;29;119370;-84
2022/12/08 07:14:24;;;;;;;4.97;2.60;;;;;;;5.26;64.17;100034.09;4769204;29;119240;-85
2022/12/08 07:16:53;;;;;;;5.93;3.20;;;;;;;5.23;63.77;100034.97;4736387;29;123239;-85
2022/12/08 07:19:20;;;;;;;6.80;3.13;;;;;;;5.32;63.67;100056.09;4748832;29;119578;-85
2022/12/08 07:21:47;;;;;;;5.72;3.08;;;;;;;5.48;64.23;100083.25;4764721;29;120078;-82
2022/12/08 07:24:15;;;;;;;5.70;2.90;;;;;;;5.11;64.48;100041.09;4749673;29;122164;-86
2022/12/08 07:26:56;;;;;;;7.47;3.50;;;;;;;5.26;64.65;100064.00;4784688;29;119343;-84
2022/12/08 07:29:39;;;;;;;4.47;3.05;;;;;;;5.15;64.13;100039.81;4736747;29;122131;-82
2022/12/08 07:32:10;;;;;;;4.95;3.38;;;;;;;5.20;64.46;100046.66;4750558;29;119577;-85
2022/12/08 07:34:39;;;;;;;5.63;3.60;;;;;;;5.32;64.31;100062.28;4766566;29;122193;-83
2022/12/08 07:37:22;;;;;;;;;;;;;;;;;;;;;
2022/12/08 07:40:17;;;;;;;7.93;3.53;;;;;;;5.53;64.03;100096.31;4766919;29;118940;-84
2022/12/08 07:42:43;;;;;;;6.60;3.33;;;;;;;5.23;64.34;100060.19;4751354;29;120864;-85
2022/12/08 07:45:42;;;;;;;8.25;3.78;;;;;;;5.20;63.62;100060.25;4767798;29;119274;-84
2022/12/08 07:48:10;;;;;;;3.80;3.37;;;;;;;5.53;64.21;100109.91;4786385;29;119297;-85
2022/12/08 07:50:37;;;;;;;7.10;4.03;;;;;;;5.10;64.00;100043.03;4774351;29;119432;-85
2022/12/08 07:53:17;;;;;;;6.72;4.18;;;;;;;5.48;64.18;100094.88;4770904;29;119464;-83
2022/12/08 07:55:48;;;;;;;7.82;3.92;;;;;;;5.44;64.22;100102.38;4769708;29;121022;-85
2022/12/08 07:58:24;;;;;;;;;;;;;;;;;;;;;
2022/12/08 08:00:52;;;;;;;7.30;4.45;;;;;;;5.00;63.75;100040.63;4754508;29;119124;-85
2022/12/08 08:03:21;;;;;;;7.47;4.88;;;;;;;4.92;63.75;100053.59;4768497;29;120969;-85
2022/12/08 08:05:50;;;;;;;8.75;4.55;;;;;;;4.93;63.82;100060.56;4749756;29;121998;-84
2022/12/08 08:08:22;;;;;;;7.28;4.65;;;;;;;4.74;63.63;100045.91;4781912;29;119534;-84
2022/12/08 08:10:53;;;;;;;8.52;5.40;;;;;;;4.71;63.78;100046.72;4784940;29;120246;-85
2022/12/08 08:13:24;;;;;;;7.78;5.43;;;;;;;4.93;64.10;100088.50;4765354;29;119537;-85
2022/12/08 08:15:51;;;;;;;6.55;5.05;;;;;;;4.65;64.00;100050.38;4765530;29;120649;-85
2022/12/08 08:18:22;;;;;;;11.25;5.65;;;;;;;4.76;63.94;100070.69;4731354;29;122233;-84
2022/12/08 08:20:51;;;;;;;7.07;5.00;;;;;;;4.67;63.50;100056.94;4740450;29;118994;-85
2022/12/08 08:23:19;;;;;;;5.80;4.55;;;;;;;4.65;63.74;100059.31;4755902;29;120779;-84
2022/12/08 08:26:09;;;;;;;7.75;5.13;;;;;;;4.66;63.46;100060.06;4789260;29;120018;-84
2022/12/08 08:28:38;;;;;;;9.40;5.50;;;;;;;4.79;63.43;100085.38;4772161;29;119713;-83
2022/12/08 08:31:16;;;;;;;6.22;5.03;;;;;;;4.73;63.63;100090.56;4767509;29;120751;-83
2022/12/08 08:33:42;;;;;;;9.25;5.63;;;;;;;4.62;63.85;100077.22;4761156;29;122151;-84
2022/12/08 08:36:11;;;;;;;9.30;5.60;;;;;;;4.60;63.88;100076.88;4766078;29;118364;-84
2022/12/08 08:38:42;;;;;;;7.22;5.28;;;;;;;4.55;63.90;100080.09;4795300;29;119399;-83
2022/12/08 08:41:11;;;;;;;7.25;6.13;;;;;;;4.91;64.29;100112.63;4780934;29;121727;-84
2022/12/08 08:43:45;;;;;;;8.55;6.03;;;;;;;4.45;64.40;100064.03;4766674;29;121043;-85
2022/12/08 08:46:13;;;;;;;8.65;6.22;;;;;;;4.67;64.42;100086.03;4794780;29;122840;-85
2022/12/08 08:48:50;;;;;;;8.30;5.32;;;;;;;4.96;64.61;100122.22;4793387;29;119234;-84
2022/12/08 08:51:19;;;;;;;10.48;5.80;;;;;;;5.01;65.18;100131.84;4754741;29;121370;-83
2022/12/08 08:53:55;;;;;;;9.02;5.05;;;;;;;4.78;65.18;100087.34;4783251;29;119567;-84
2022/12/08 08:56:29;;;;;;;7.97;5.80;;;;;;;5.10;64.61;100127.31;4773659;29;119053;-84
2022/12/08 08:58:59;;;;;;;10.13;5.85;;;;;;;4.86;64.44;100082.47;4777794;29;121794;-83
2022/12/08 09:01:34;;;;;;;9.23;6.00;;;;;;;4.83;64.02;100083.34;4768727;29;119266;-85
2022/12/08 09:04:06;;;;;;;9.00;5.20;;;;;;;5.20;64.29;100136.38;4752224;29;120567;-84
2022/12/08 09:06:35;;;;;;;7.15;5.53;;;;;;;4.89;63.90;100093.25;4780420;29;120088;-84
2022/12/08 09:09:01;;;;;;;20.42;11.30;;;;;;;5.06;64.43;100118.50;4768100;29;119845;-84
2022/12/08 09:11:35;;;;;;;12.77;7.97;;;;;;;5.01;65.00;100104.66;4768039;29;119075;-82
2022/12/08 09:14:19;;;;;;;15.00;8.63;;;;;;;4.94;64.37;100100.91;4765340;29;121644;-84
2022/12/08 09:16:48;;;;;;;12.82;8.68;;;;;;;5.30;64.50;100143.53;4773507;29;119247;-85
2022/12/08 09:19:18;;;;;;;8.27;6.60;;;;;;;4.98;65.17;100091.91;4796955;29;119364;-84
2022/12/08 09:21:47;;;;;;;9.45;5.93;;;;;;;4.80;64.42;100065.94;4795208;29;119262;-84
2022/12/08 09:24:16;;;;;;;6.03;5.25;;;;;;;5.33;64.80;100136.47;4765172;29;120496;-84
2022/12/08 09:27:03;;;;;;;8.90;5.75;;;;;;;5.07;65.00;100092.06;4777881;29;121952;-84
2022/12/08 09:29:32;;;;;;;9.65;5.32;;;;;;;5.01;64.71;100080.97;4778029;29;119234;-85
2022/12/08 09:32:01;;;;;;;12.02;5.65;;;;;;;5.45;64.54;100149.38;4778026;29;119410;-84
2022/12/08 09:34:40;;;;;;;11.55;6.45;;;;;;;5.47;64.59;100145.03;4768172;29;123487;-83
2022/12/08 09:37:14;;;;;;;15.18;6.72;;;;;;;5.23;64.57;100095.53;4798130;29;118358;-85
2022/12/08 09:39:43;;;;;;;11.60;6.72;;;;;;;5.44;64.39;100126.88;4755239;29;120845;-84
2022/12/08 09:42:15;;;;;;;11.25;6.85;;;;;;;5.30;64.52;100104.69;4765323;29;122259;-85
2022/12/08 09:45:08;;;;;;;8.75;6.13;;;;;;;5.65;64.30;100150.00;4782101;29;121391;-83
2022/12/08 09:47:47;;;;;;;6.53;5.22;;;;;;;5.39;64.51;100107.56;4749558;29;122128;-83
2022/12/08 09:50:35;;;;;;;6.18;5.07;;;;;;;5.66;64.40;100142.59;4738804;29;119675;-85
2022/12/08 09:53:08;;;;;;;8.48;5.78;;;;;;;5.66;64.26;100151.53;4755766;29;121198;-83
2022/12/08 09:56:40;;;;;;;;;;;;;;;;;;;;;
2022/12/08 09:59:23;;;;;;;16.65;7.57;;;;;;;5.68;63.99;100145.66;4768806;29;118536;-84
2022/12/08 10:01:54;;;;;;;11.15;6.82;;;;;;;5.46;64.19;100108.16;4776267;29;121089;-84
2022/12/08 10:04:30;;;;;;;9.02;5.40;;;;;;;5.35;64.14;100082.41;4735410;29;121655;-84
2022/12/08 10:07:12;;;;;;;6.00;4.78;;;;;;;5.80;64.00;100137.56;4787600;29;119780;-84
2022/12/08 10:10:21;;;;;;;7.35;4.88;;;;;;;5.86;64.10;100130.38;4767410;29;121763;-84
2022/12/08 10:13:07;;;;;;;8.73;5.25;;;;;;;5.93;63.99;100134.91;4783165;29;119701;-85
2022/12/08 10:15:39;;;;;;;6.00;4.85;;;;;;;5.93;63.66;100129.47;4782793;29;120814;-84
2022/12/08 10:18:30;;;;;;;8.02;4.35;;;;;;;5.67;63.70;100092.44;4752173;29;121979;-83
2022/12/08 10:21:15;;;;;;;7.50;4.55;;;;;;;5.82;63.79;100110.66;4735234;29;119864;-83
2022/12/08 10:23:49;;;;;;;6.18;4.70;;;;;;;5.60;63.97;100073.59;4768097;29;121292;-83
2022/12/08 10:26:21;;;;;;;5.53;4.15;;;;;;;5.86;64.12;100105.13;4767238;29;119456;-84
2022/12/08 10:28:48;;;;;;;7.68;4.38;;;;;;;5.85;63.99;100100.88;4753991;29;120075;-84
2022/12/08 10:31:21;;;;;;;9.50;4.22;;;;;;;6.02;63.55;100109.78;4755636;29;121784;-82
2022/12/08 10:33:56;;;;;;;8.50;4.28;;;;;;;5.93;63.05;100098.78;4730324;29;119164;-85
2022/12/08 10:36:49;;;;;;;6.85;4.10;;;;;;;5.96;63.54;100095.19;4768530;29;121350;-85
2022/12/08 10:39:32;;;;;;;7.00;3.50;;;;;;;6.15;63.41;100124.16;4771621;29;119303;-84
2022/12/08 10:42:15;;;;;;;8.95;4.40;;;;;;;6.27;63.41;100128.13;4768063;29;119278;-85
2022/12/08 10:45:19;;;;;;;;;;;;;;;;;;;;;
2022/12/08 10:48:14;;;;;;;9.18;4.72;;;;;;;5.93;62.91;100077.75;4757951;29;119410;-84
2022/12/08 10:50:52;;;;;;;9.50;4.50;;;;;;;6.34;62.83;100141.53;4765500;29;119339;-84
2022/12/08 10:53:26;;;;;;;9.27;4.65;;;;;;;6.36;63.02;100145.34;4753502;29;122236;-83
2022/12/08 10:55:57;;;;;;;8.73;4.43;;;;;;;6.37;62.78;100135.19;4748837;29;120109;-83
2022/12/08 10:58:29;;;;;;;6.65;4.15;;;;;;;5.99;63.01;100078.72;4750525;29;119483;-83
2022/12/08 11:01:17;;;;;;;6.45;3.90;;;;;;;6.34;63.10;100134.09;4764991;29;122146;-84
2022/12/08 11:03:43;;;;;;;7.18;3.67;;;;;;;6.37;62.75;100140.66;4761536;29;119397;-83
2022/12/08 11:06:19;;;;;;;5.10;3.90;;;;;;;6.15;62.45;100108.63;4759787;29;120729;-83
2022/12/08 11:08:55;;;;;;;4.40;3.55;;;;;;;6.00;62.34;100085.72;4763992;29;122286;-85
2022/12/08 11:11:43;;;;;;;4.82;3.60;;;;;;;6.19;62.70;100102.28;4771272;29;119400;-83
2022/12/08 11:14:37;;;;;;;4.18;3.55;;;;;;;6.02;62.55;100088.00;4785849;29;119393;-84
2022/12/08 11:17:24;;;;;;;4.00;3.60;;;;;;;6.43;62.20;100144.38;4762030;29;122447;-83
2022/12/08 11:20:01;;;;;;;5.88;3.80;;;;;;;6.27;62.35;100125.38;4770156;29;121391;-85
2022/12/08 11:22:42;;;;;;;4.25;3.85;;;;;;;6.03;62.52;100112.06;4784458;29;122228;-84
2022/12/08 11:25:13;;;;;;;5.65;3.63;;;;;;;6.26;62.34;100140.22;4759895;29;119515;-85
2022/12/08 11:27:44;;;;;;;6.20;4.05;;;;;;;5.90;62.58;100113.22;4768385;29;119169;-85
2022/12/08 11:30:31;;;;;;;5.35;4.20;;;;;;;5.66;62.68;100080.03;4786079;29;119331;-85
2022/12/08 11:33:17;;;;;;;4.53;4.03;;;;;;;6.11;62.88;100153.44;4766920;29;119641;-85
2022/12/08 11:35:58;;;;;;;5.70;4.80;;;;;;;6.01;63.42;100122.63;4775112;29;121206;-83
2022/12/08 11:38:34;;;;;;;5.68;4.20;;;;;;;6.11;63.72;100118.81;4736189;29;123078;-82
2022/12/08 11:41:09;;;;;;;4.97;4.05;;;;;;;6.00;63.83;100079.50;4781104;29;119412;-83
2022/12/08 11:44:33;;;;;;;5.65;4.47;;;;;;;6.54;63.63;100147.53;4786311;29;122137;-85
2022/12/08 11:47:24;;;;;;;4.33;3.73;;;;;;;6.24;63.26;100085.41;4735750;29;119113;-84
2022/12/08 11:50:01;;;;;;;4.10;3.60;;;;;;;6.41;63.17;100093.06;4757606;29;120460;-82
2022/12/08 11:52:32;;;;;;;4.18;3.45;;;;;;;6.62;63.24;100099.78;4775501;29;119556;-84
2022/12/08 11:55:16;;;;;;;4.18;3.20;;;;;;;6.61;62.31;100084.63;4756950;29;118429;-84
2022/12/08 11:57:44;;;;;;;4.53;3.33;;;;;;;6.92;62.16;100108.63;4769891;29;119133;-84
2022/12/08 12:00:15;;;;;;;6.10;3.63;;;;;;;7.19;62.06;100138.13;4768308;29;121743;-82
2022/12/08 12:02:46;;;;;;;2.13;1.30;;;;;;;6.84;61.66;100069.13;4748839;29;122318;-84
2022/12/08 12:05:51;;;;;;;3.30;1.90;;;;;;;7.17;61.22;100122.19;4756636;29;120430;-84
2022/12/08 12:08:50;;;;;;;4.40;2.55;;;;;;;7.09;60.69;100104.53;4765586;29;119422;-84
2022/12/08 12:12:15;;;;;;;2.70;2.20;;;;;;;7.46;60.55;100148.53;4753336;29;119289;-84
2022/12/08 12:15:06;;;;;;;3.63;2.40;;;;;;;7.49;59.76;100147.63;4767196;29;122106;-84
2022/12/08 12:17:52;;;;;;;2.70;2.10;;;;;;;7.21;59.81;100117.38;4769955;29;118522;-84
2022/12/08 12:20:33;;;;;;;3.42;2.78;;;;;;;7.61;59.74;100149.56;4750740;29;122320;-84
2022/12/08 12:23:06;;;;;;;3.13;2.10;;;;;;;7.44;59.78;100110.75;4769193;29;121558;-84